North Creek, NY

1:38 PM EST on December 08, 2016 (GMT -0500)
Old River Road | | Change Station

Elev 1030 ft 43.71 °N, 73.99 °W | Updated 2 seconds ago

Overcast
Overcast
35.8 °F
Feels Like 36 °F
N
0.0
Wind Variable Wind from West
Gusts 11.0 mph

Today
High -- | Low -- °F
--% Chance of Precip.
Yesterday
High -- | Low -- °F
Precip. -- in
Pressure 29.83 in
Visibility 10.0 miles
Clouds Mostly Cloudy 3600 ft
Mostly Cloudy 4300 ft
Overcast 6000 ft
Windchill 36 °F
Dew Point 25 °F
Humidity 64%
Rainfall 0.00 in
Snow Depth Not available.
7:17 AM 4:18 PM
Waxing Gibbous, 65% visible
METAR KGFL 081753Z AUTO 16009KT 10SM BKN036 BKN043 OVC060 03/M01 A2980 RMK AO2 SLP099 I6000 T00281011 10028 21011 58021
Pressure 29.83 in
Visibility 10.0 miles
Clouds Mostly Cloudy 3600 ft
Mostly Cloudy 4300 ft
Overcast 6000 ft
Windchill 36 °F
Dew Point 25 °F
Humidity 64%
Rainfall 0.00 in
Snow Depth Not available.
7:17 AM 4:18 PM
Waxing Gibbous, 65% visible
METAR KGFL 081753Z AUTO 16009KT 10SM BKN036 BKN043 OVC060 03/M01 A2980 RMK AO2 SLP099 I6000 T00281011 10028 21011 58021

10-Day Weather Forecast

Almanac

Astronomy

Dec. 08, 2016 Rise Set
Actual Time
Civil Twilight
Nautical Twilight
Astronomical Twilight
Moon
Length of Visible Light
Length of Day
Tomorrow will be .
, % of the Moon is Illuminated

Today's Extremes

State Highs State Lows

Community

WunderPhotos

Upload Photos

1,956,277 photos uploaded!

WunderBlog® & News

Nearby

Air Quality

  Air Quality AQ Index Pollutant
Not available.

Snow Depth

Station Depth Elevation

Earthquake Activity

City Distance Mag. Time & Date
Minimum magnitude displayed is 2.5.

Coastal Water Temperatures

Place Temperature

Stations

Nearby Weather Stations

Station Location Temp. Windchill Dew Point Humidity Wind Precip. Elev Updated Type
                   

Watches & Warnings

There are currently no watches in effect.